地図

経路データ

SID SEASON NUMBER BASIN SUBBASIN NAME ISO_TIME NATURE LAT LON WMO_WIND WMO_PRES WMO_AGENCY TRACK_TYPE DIST2LAND LANDFALL IFLAG USA_AGENCY USA_ATCF_ID USA_LAT USA_LON USA_RECORD USA_STATUS USA_WIND USA_PRES USA_SSHS USA_R34_NE USA_R34_SE USA_R34_SW USA_R34_NW USA_R50_NE USA_R50_SE USA_R50_SW USA_R50_NW USA_R64_NE USA_R64_SE USA_R64_SW USA_R64_NW USA_POCI USA_ROCI USA_RMW USA_EYE TOKYO_LAT TOKYO_LON TOKYO_GRADE TOKYO_WIND TOKYO_PRES TOKYO_R50_DIR TOKYO_R50_LONG TOKYO_R50_SHORT TOKYO_R30_DIR TOKYO_R30_LONG TOKYO_R30_SHORT TOKYO_LAND CMA_LAT CMA_LON CMA_CAT CMA_WIND CMA_PRES HKO_LAT HKO_LON HKO_CAT HKO_WIND HKO_PRES NEWDELHI_LAT NEWDELHI_LON NEWDELHI_GRADE NEWDELHI_WIND NEWDELHI_PRES NEWDELHI_CI NEWDELHI_DP NEWDELHI_POCI REUNION_LAT REUNION_LON REUNION_TYPE REUNION_WIND REUNION_PRES REUNION_TNUM REUNION_CI REUNION_RMW REUNION_R34_NE REUNION_R34_SE REUNION_R34_SW REUNION_R34_NW REUNION_R50_NE REUNION_R50_SE REUNION_R50_SW REUNION_R50_NW REUNION_R64_NE REUNION_R64_SE REUNION_R64_SW REUNION_R64_NW BOM_LAT BOM_LON BOM_TYPE BOM_WIND BOM_PRES BOM_TNUM BOM_CI BOM_RMW BOM_R34_NE BOM_R34_SE BOM_R34_SW BOM_R34_NW BOM_R50_NE BOM_R50_SE BOM_R50_SW BOM_R50_NW BOM_R64_NE BOM_R64_SE BOM_R64_SW BOM_R64_NW BOM_ROCI BOM_POCI BOM_EYE BOM_POS_METHOD BOM_PRES_METHOD NADI_LAT NADI_LON NADI_CAT NADI_WIND NADI_PRES WELLINGTON_LAT WELLINGTON_LON WELLINGTON_WIND WELLINGTON_PRES DS824_LAT DS824_LON DS824_STAGE DS824_WIND DS824_PRES TD9636_LAT TD9636_LON TD9636_STAGE TD9636_WIND TD9636_PRES TD9635_LAT TD9635_LON TD9635_WIND TD9635_PRES TD9635_ROCI NEUMANN_LAT NEUMANN_LON NEUMANN_CLASS NEUMANN_WIND NEUMANN_PRES MLC_LAT MLC_LON MLC_CLASS MLC_WIND MLC_PRES USA_GUST BOM_GUST BOM_GUST_PER REUNION_GUST REUNION_GUST_PER USA_SEAHGT USA_SEARAD_NE USA_SEARAD_SE USA_SEARAD_SW USA_SEARAD_NW STORM_SPEED STORM_DIR
1999234N16251 1999 68 EP MM NOT_NAMED 1999-08-21 18:00:00 NR 16.2000 -108.600 main 522 484 O_____________ jtwc_ep EP111999 16.2000 -108.600 20 -1 9 9
1999234N16251 1999 68 EP MM NOT_NAMED 1999-08-21 21:00:00 NR 16.6451 -108.530 main 484 431 P_____________ EP111999 16.6451 -108.530 20 -1 11 5
1999234N16251 1999 68 EP MM NOT_NAMED 1999-08-22 00:00:00 NR 17.3000 -108.500 main 431 374 O_____________ jtwc_ep EP111999 17.3000 -108.500 20 -1 16 0
1999234N16251 1999 68 EP MM NOT_NAMED 1999-08-22 03:00:00 NR 18.2524 -108.547 main 368 345 P_____________ EP111999 18.2524 -108.547 22 -1 18 354
1999234N16251 1999 68 EP MM NOT_NAMED 1999-08-22 06:00:00 NR 19.1000 -108.700 main 345 341 O_____________ jtwc_ep EP111999 19.1000 -108.700 25 -1 12 341
1999234N16251 1999 68 EP MM NOT_NAMED 1999-08-22 09:00:00 NR 19.3975 -108.963 main 362 362 P_____________ EP111999 19.3975 -108.963 27 -1 7 305
1999234N16251 1999 68 EP MM NOT_NAMED 1999-08-22 12:00:00 NR 19.5000 -109.300 main 383 357 O_____________ jtwc_ep EP111999 19.5000 -109.300 30 -1 8 297
1999234N16251 1999 68 EP MM NOT_NAMED 1999-08-22 15:00:00 NR 19.7426 -109.672 main 357 324 P_____________ EP111999 19.7426 -109.672 30 -1 8 307
1999234N16251 1999 68 EP MM NOT_NAMED 1999-08-22 18:00:00 NR 20.0000 -110.000 main 324 302 O_____________ jtwc_ep EP111999 20.0000 -110.000 30 -1 7 317
1999234N16251 1999 68 EP MM NOT_NAMED 1999-08-22 21:00:00 NR 20.2499 -110.173 main 302 270 P_____________ EP111999 20.2499 -110.173 30 -1 6 330
1999234N16251 1999 68 EP MM NOT_NAMED 1999-08-23 00:00:00 NR 20.5000 -110.300 main 270 249 O_____________ jtwc_ep EP111999 20.5000 -110.300 30 -1 6 329
1999234N16251 1999 68 EP MM NOT_NAMED 1999-08-23 03:00:00 NR 20.7425 -110.493 main 251 224 P_____________ EP111999 20.7425 -110.493 30 -1 6 323
1999234N16251 1999 68 EP MM NOT_NAMED 1999-08-23 06:00:00 NR 21.0000 -110.700 main 224 201 O_____________ jtwc_ep EP111999 21.0000 -110.700 30 -1 7 325
1999234N16251 1999 68 EP MM NOT_NAMED 1999-08-23 09:00:00 NR 21.2925 -110.908 main 201 184 P_____________ EP111999 21.3075 -110.915 30 -1 7 328
1999234N16251 1999 68 EP MM NOT_NAMED 1999-08-23 12:00:00 NR 21.6000 -111.100 main 184 166 O_____________ jtwc_ep EP111999 21.6000 -111.100 30 -1 7 335
1999234N16251 1999 68 EP MM NOT_NAMED 1999-08-23 15:00:00 NR 21.9073 -111.220 main 166 159 P_____________ EP111999 21.7922 -111.156 30 -1 6 335
1999234N16251 1999 68 EP MM NOT_NAMED 1999-08-23 18:00:00 TS 22.1333 -111.367 30 hurdat_epa main 169 163 O_____________ hurdat_epa EP111999 22.0000 -111.300 TD 30 -1 8 313
1999234N16251 1999 68 EP MM NOT_NAMED 1999-08-23 21:00:00 TS 22.4266 -111.812 main 190 188 P_____________ EP111999 22.3505 -111.777 TD 30 -1 10 304
1999234N16251 1999 68 EP MM NOT_NAMED 1999-08-24 00:00:00 TS 22.7000 -112.260 30 hurdat_epa main 198 189 O_____________ hurdat_epa EP111999 22.7000 -112.300 TD 30 -1 9 305
1999234N16251 1999 68 EP MM NOT_NAMED 1999-08-24 03:00:00 TS 22.9132 -112.574 main 196 191 P_____________ EP111999 22.9898 -112.618 TD 27 -1 5 298
1999234N16251 1999 68 EP MM NOT_NAMED 1999-08-24 06:00:00 TS 22.9400 -112.760 25 hurdat_epa main 205 205 O_____________ hurdat_epa EP111999 23.1000 -112.800 TD 25 -1 3 240
1999234N16251 1999 68 EP MM NOT_NAMED 1999-08-24 09:00:00 TS 22.7562 -112.867 main 220 220 P_____________ EP111999 22.9249 -112.850 TD 25 -1 5 202
1999234N16251 1999 68 EP MM NOT_NAMED 1999-08-24 12:00:00 TS 22.4800 -112.960 25 hurdat_epa main 254 254 O_____________ hurdat_epa EP111999 22.6000 -112.900 TD 25 -1 6 208
1999234N16251 1999 68 EP MM NOT_NAMED 1999-08-24 15:00:00 NR 22.2026 -113.185 main 294 294 P_____________ EP111999 22.2877 -113.100 TD 25 -1 6 220
1999234N16251 1999 68 EP MM NOT_NAMED 1999-08-24 18:00:00 NR 22.0000 -113.400 main 323 O_____________ jtwc_ep EP111999 22.0000 -113.400 25 -1 6 224

IBTrACS Databaseについて

本データベースは、米国NOAAが公開する1842年以降の世界の熱帯低気圧のベストトラックデータアーカイブInternational Best Track Archive for Climate Stewardship (IBTrACS)を、ウェブで閲覧しやすい形式に変換したものです。

最終更新日:2021-10-21